createdAt,value
2022-10-13T00:00:58.431Z,100076.72
2022-10-13T00:03:25.468Z,100086.41
2022-10-13T00:05:52.298Z,100085.81
2022-10-13T00:08:21.206Z,100083.75
2022-10-13T00:11:19.784Z,100084.84
2022-10-13T00:13:48.196Z,100073.63
2022-10-13T00:16:16.890Z,100087.50
2022-10-13T00:18:43.827Z,100080.75
2022-10-13T00:21:13.852Z,100077.53
2022-10-13T00:23:41.426Z,100080.94
2022-10-13T00:26:10.854Z,100079.22
2022-10-13T00:28:38.811Z,100083.78
2022-10-13T00:31:15.759Z,100081.69
2022-10-13T00:33:42.702Z,100085.75
2022-10-13T00:36:09.516Z,100092.81
2022-10-13T00:38:36.297Z,100091.38
2022-10-13T00:41:03.132Z,100086.94
2022-10-13T00:43:54.825Z,100081.25
2022-10-13T00:46:22.386Z,100082.13
2022-10-13T00:48:59.967Z,100073.53
2022-10-13T00:51:29.252Z,100074.72
2022-10-13T00:53:57.028Z,100075.56
2022-10-13T00:56:24.450Z,100070.22
2022-10-13T00:58:52.251Z,100078.66
2022-10-13T01:01:19.252Z,100079.56
2022-10-13T01:03:46.002Z,100073.78
2022-10-13T01:06:13.012Z,100075.38
2022-10-13T01:08:39.965Z,100078.59
2022-10-13T01:11:41.948Z,100069.78
2022-10-13T01:14:37.483Z,100074.34
2022-10-13T01:17:29.032Z,100082.28
2022-10-13T01:20:08.239Z,100081.31
2022-10-13T01:23:12.739Z,100079.75
2022-10-13T01:25:51.538Z,100069.47
2022-10-13T01:28:24.535Z,100072.31
2022-10-13T01:30:59.065Z,100073.22
2022-10-13T01:33:31.674Z,100057.63
2022-10-13T01:36:25.938Z,100057.59
2022-10-13T01:39:15.955Z,100059.06
2022-10-13T01:41:46.465Z,100071.69
2022-10-13T01:44:22.687Z,100074.03
2022-10-13T01:46:55.473Z,100071.22
2022-10-13T01:49:27.769Z,100074.84
2022-10-13T01:51:55.615Z,100068.41
2022-10-13T01:54:22.334Z,100070.88
2022-10-13T01:56:54.206Z,100060.75
2022-10-13T01:59:21.547Z,100059.56
2022-10-13T02:01:48.835Z,100062.31
2022-10-13T02:04:26.673Z,100052.72
2022-10-13T02:07:09.543Z,100054.56
2022-10-13T02:09:48.199Z,100054.25
2022-10-13T02:12:24.963Z,100053.56
2022-10-13T02:17:53.736Z,100051.44
2022-10-13T02:20:21.302Z,100053.47
2022-10-13T02:22:53.020Z,100052.78
2022-10-13T02:25:19.841Z,100049.53
2022-10-13T02:27:46.681Z,100059.75
2022-10-13T02:30:24.380Z,100058.72
2022-10-13T02:32:51.273Z,100050.13
2022-10-13T02:35:18.046Z,100050.13
2022-10-13T02:37:44.932Z,100056.91
2022-10-13T02:40:12.198Z,100059.91
2022-10-13T02:42:39.401Z,100066.78
2022-10-13T02:45:06.681Z,100063.47
2022-10-13T02:47:33.607Z,100062.94
2022-10-13T02:50:02.557Z,100066.50
2022-10-13T02:52:29.333Z,100058.69
2022-10-13T02:54:56.095Z,100062.75
2022-10-13T02:57:23.121Z,100064.53
2022-10-13T02:59:51.738Z,100055.19
2022-10-13T03:02:19.124Z,100060.41
2022-10-13T03:04:48.324Z,100055.88
2022-10-13T03:07:15.470Z,100064.13
2022-10-13T03:09:42.326Z,100070.44
2022-10-13T03:12:09.107Z,100068.09
2022-10-13T03:14:36.060Z,100061.84
2022-10-13T03:20:06.882Z,100040.31
2022-10-13T03:22:34.126Z,100049.00
2022-10-13T03:25:00.959Z,100045.06
2022-10-13T03:27:28.068Z,100048.66
2022-10-13T03:29:54.847Z,100051.84
2022-10-13T03:32:21.975Z,100056.16
2022-10-13T03:34:50.067Z,100054.00
2022-10-13T03:37:17.334Z,100055.09
2022-10-13T03:39:44.172Z,100051.34
2022-10-13T03:42:12.169Z,100053.44
2022-10-13T03:44:39.238Z,100050.13
2022-10-13T03:47:06.041Z,100042.03
2022-10-13T03:49:32.789Z,100040.97
2022-10-13T03:51:59.486Z,100041.97
2022-10-13T03:54:26.481Z,100042.63
2022-10-13T03:56:53.230Z,100051.03
2022-10-13T03:59:20.023Z,100048.31
2022-10-13T04:01:46.863Z,100043.25
2022-10-13T04:04:14.092Z,100038.94
2022-10-13T04:06:41.928Z,100035.88
2022-10-13T04:09:09.595Z,100034.06
2022-10-13T04:11:36.405Z,100042.03
2022-10-13T04:14:03.247Z,100040.22
2022-10-13T04:16:31.202Z,100041.22
2022-10-13T04:21:54.436Z,100041.16
2022-10-13T04:24:21.435Z,100037.69
2022-10-13T04:26:48.224Z,100040.78
2022-10-13T04:29:14.993Z,100041.16
2022-10-13T04:31:43.912Z,100039.59
2022-10-13T04:34:12.210Z,100043.31
2022-10-13T04:36:39.020Z,100044.63
2022-10-13T04:39:06.021Z,100037.25
2022-10-13T04:41:33.437Z,100035.47
2022-10-13T04:44:02.581Z,100021.91
2022-10-13T04:46:29.575Z,100024.00
2022-10-13T04:48:57.102Z,100028.13
2022-10-13T04:51:29.008Z,100022.16
2022-10-13T04:53:57.507Z,100022.44
2022-10-13T04:56:24.949Z,100022.75
2022-10-13T04:58:51.898Z,100026.69
2022-10-13T05:01:22.349Z,100023.38
2022-10-13T05:03:57.511Z,100024.50
2022-10-13T05:06:26.676Z,100014.75
2022-10-13T05:08:56.105Z,100017.72
2022-10-13T05:11:24.347Z,100019.94
2022-10-13T05:13:51.257Z,100022.84
2022-10-13T05:16:19.148Z,100016.44
2022-10-13T05:18:45.948Z,100015.69
2022-10-13T05:21:24.751Z,100006.56
2022-10-13T05:23:54.367Z,99999.97
2022-10-13T05:26:28.648Z,100013.06
2022-10-13T05:28:56.892Z,100011.22
2022-10-13T05:31:26.530Z,100010.34
2022-10-13T05:33:53.366Z,100006.69
2022-10-13T05:36:26.359Z,100009.09
2022-10-13T05:38:53.978Z,100001.72
2022-10-13T05:41:21.544Z,100003.19
2022-10-13T05:43:48.607Z,100006.47
2022-10-13T05:46:15.370Z,100007.66
2022-10-13T05:48:42.300Z,99993.19
2022-10-13T05:51:15.163Z,99994.84
2022-10-13T05:53:50.243Z,99984.47
2022-10-13T05:56:22.284Z,99990.09
2022-10-13T05:58:53.045Z,99992.19
2022-10-13T06:01:22.992Z,99998.22
2022-10-13T06:03:51.143Z,99994.94
2022-10-13T06:06:17.910Z,100007.22
2022-10-13T06:08:44.823Z,100003.44
2022-10-13T06:11:11.558Z,100003.03
2022-10-13T06:13:38.278Z,99996.28
2022-10-13T06:16:05.256Z,100006.91
2022-10-13T06:18:32.087Z,99990.91
2022-10-13T06:20:58.948Z,99996.78
2022-10-13T06:23:25.857Z,99989.47
2022-10-13T06:25:53.878Z,99999.25
2022-10-13T06:28:21.301Z,99993.19
2022-10-13T06:30:53.876Z,100004.56
2022-10-13T06:33:22.689Z,99997.88
2022-10-13T06:35:50.148Z,100001.00
2022-10-13T06:38:17.863Z,100002.00
2022-10-13T06:40:48.347Z,100005.28
2022-10-13T06:43:15.142Z,100001.16
2022-10-13T06:45:41.908Z,100007.47
2022-10-13T06:48:08.803Z,100016.19
2022-10-13T06:50:39.422Z,100010.53
2022-10-13T06:56:12.024Z,100014.81
2022-10-13T06:58:38.978Z,100010.53
2022-10-13T07:01:07.203Z,100016.72
2022-10-13T07:03:34.094Z,100011.06
2022-10-13T07:06:05.087Z,100003.19
2022-10-13T07:08:32.773Z,99998.94
2022-10-13T07:10:59.606Z,99994.13
2022-10-13T07:13:26.464Z,99993.38
2022-10-13T07:15:53.411Z,100000.03
2022-10-13T07:18:20.260Z,99993.91
2022-10-13T07:20:46.960Z,99995.50
2022-10-13T07:23:14.109Z,99994.97
2022-10-13T07:25:40.911Z,99992.91
2022-10-13T07:28:08.153Z,100000.69
2022-10-13T07:30:34.857Z,99994.13
2022-10-13T07:33:03.225Z,100004.69
2022-10-13T07:35:31.032Z,99990.41
2022-10-13T07:37:58.337Z,99988.69
2022-10-13T07:40:25.151Z,99988.63
2022-10-13T07:42:52.124Z,99987.81
2022-10-13T07:45:18.865Z,99987.00
2022-10-13T07:47:45.671Z,99980.97
2022-10-13T07:50:12.505Z,99973.00
2022-10-13T07:52:39.422Z,99982.94
2022-10-13T07:55:06.858Z,99986.59
2022-10-13T07:57:33.856Z,99991.72
2022-10-13T08:00:01.110Z,99985.75
2022-10-13T08:02:28.015Z,99990.75
2022-10-13T08:04:54.830Z,99993.13
2022-10-13T08:07:22.824Z,99989.13
2022-10-13T08:09:49.854Z,99994.47
2022-10-13T08:12:17.100Z,99989.81
2022-10-13T08:14:44.112Z,99978.69
2022-10-13T08:17:12.971Z,99984.81
2022-10-13T08:19:39.803Z,99984.06
2022-10-13T08:22:09.584Z,99991.66
2022-10-13T08:24:36.975Z,99991.25
2022-10-13T08:27:04.079Z,99984.47
2022-10-13T08:29:31.004Z,99970.56
2022-10-13T08:31:57.790Z,99975.53
2022-10-13T08:34:25.066Z,99977.56
2022-10-13T08:36:54.471Z,99974.09
2022-10-13T08:39:24.283Z,99971.44
2022-10-13T08:41:52.007Z,99976.81
2022-10-13T08:47:36.539Z,99969.50
2022-10-13T08:50:11.805Z,99967.66
2022-10-13T08:53:00.493Z,99958.88
2022-10-13T08:55:34.707Z,99965.44
2022-10-13T08:58:03.256Z,99964.44
2022-10-13T09:00:30.767Z,99963.81
2022-10-13T09:03:30.465Z,99970.78
2022-10-13T09:06:17.418Z,99963.81
2022-10-13T09:08:51.029Z,99956.41
2022-10-13T09:11:17.844Z,99958.50
2022-10-13T09:13:44.604Z,99962.38
2022-10-13T09:16:11.440Z,99968.75
2022-10-13T09:18:38.611Z,99966.94
2022-10-13T09:21:22.211Z,99960.16
2022-10-13T09:23:50.832Z,99964.88
2022-10-13T09:26:23.559Z,99961.38
2022-10-13T09:28:51.383Z,99957.44
2022-10-13T09:31:28.950Z,99963.78
2022-10-13T09:34:01.199Z,99963.38
2022-10-13T09:36:28.598Z,99958.59
2022-10-13T09:39:06.505Z,99950.75
2022-10-13T09:41:34.500Z,99955.44
2022-10-13T09:44:10.120Z,99959.13
2022-10-13T09:46:38.787Z,99965.03
2022-10-13T09:49:21.554Z,99963.38
2022-10-13T09:51:48.786Z,99961.75
2022-10-13T09:54:24.425Z,99954.56
2022-10-13T09:57:04.339Z,99954.34
2022-10-13T09:59:37.073Z,99942.94
2022-10-13T10:02:21.359Z,99932.81
2022-10-13T10:04:51.864Z,99928.38
2022-10-13T10:07:22.127Z,99927.84
2022-10-13T10:09:57.001Z,99922.03
2022-10-13T10:12:28.014Z,99926.47
2022-10-13T10:14:54.959Z,99926.16
2022-10-13T10:17:37.877Z,99926.72
2022-10-13T10:20:29.246Z,99924.19
2022-10-13T10:23:09.449Z,99924.75
2022-10-13T10:25:52.458Z,99927.16
2022-10-13T10:28:19.396Z,99929.56
2022-10-13T10:30:57.996Z,99936.91
2022-10-13T10:33:48.205Z,99937.28
2022-10-13T10:36:35.057Z,99930.25
2022-10-13T10:39:28.046Z,99920.94
2022-10-13T10:42:04.381Z,99916.75
2022-10-13T10:44:33.757Z,99912.53
2022-10-13T10:47:11.522Z,99898.50
2022-10-13T10:49:39.577Z,99898.09
2022-10-13T10:52:09.652Z,99884.84
2022-10-13T10:54:57.257Z,99887.41
2022-10-13T10:57:57.914Z,99894.34
2022-10-13T11:00:25.010Z,99888.66
2022-10-13T11:03:03.479Z,99882.56
2022-10-13T11:06:04.309Z,99881.22
2022-10-13T11:08:37.736Z,99881.97
2022-10-13T11:11:26.775Z,99861.72
2022-10-13T11:14:00.730Z,99864.53
2022-10-13T11:16:47.403Z,99872.03
2022-10-13T11:19:32.695Z,99855.97
2022-10-13T11:21:59.459Z,99854.19
2022-10-13T11:24:41.207Z,99854.31
2022-10-13T11:27:16.184Z,99844.19
2022-10-13T11:29:46.685Z,99845.34
2022-10-13T11:32:26.130Z,99834.72
2022-10-13T11:34:59.484Z,99831.66
2022-10-13T11:37:55.846Z,99830.53
2022-10-13T11:40:57.200Z,99810.19
2022-10-13T11:43:48.261Z,99808.25
2022-10-13T11:46:14.954Z,99803.41
2022-10-13T11:48:44.773Z,99804.97
2022-10-13T11:51:55.029Z,99783.34
2022-10-13T11:54:47.666Z,99788.94
2022-10-13T11:57:23.547Z,99783.72
2022-10-13T11:59:55.415Z,99782.09
2022-10-13T12:02:52.016Z,99796.81
2022-10-13T12:05:24.340Z,99771.59
2022-10-13T12:07:52.912Z,99772.41
2022-10-13T12:10:32.771Z,99771.75
2022-10-13T12:13:01.155Z,99761.81
2022-10-13T12:15:31.731Z,99752.69
2022-10-13T12:18:45.432Z,99741.59
2022-10-13T12:21:21.185Z,99741.31
2022-10-13T12:23:50.498Z,99734.19
2022-10-13T12:26:23.000Z,99727.66
2022-10-13T12:28:58.498Z,99721.16
2022-10-13T12:31:28.189Z,99725.22
2022-10-13T12:34:01.321Z,99720.25
2022-10-13T12:36:31.139Z,99718.13
2022-10-13T12:39:04.820Z,99702.84
2022-10-13T12:41:34.899Z,99711.41
2022-10-13T12:44:05.771Z,99713.84
2022-10-13T12:46:41.527Z,99716.09
2022-10-13T12:49:22.804Z,99715.53
2022-10-13T12:51:55.691Z,99705.19
2022-10-13T12:54:30.831Z,99713.91
2022-10-13T12:57:04.308Z,99708.38
2022-10-13T12:59:31.691Z,99709.91
2022-10-13T13:02:01.521Z,99716.56
2022-10-13T13:04:41.222Z,99722.53
2022-10-13T13:07:27.738Z,99730.25
2022-10-13T13:10:08.311Z,99729.03
2022-10-13T13:12:36.854Z,99736.91
2022-10-13T13:15:21.556Z,99733.50
2022-10-13T13:18:04.817Z,99731.22
2022-10-13T13:20:34.034Z,99712.63
2022-10-13T13:23:00.797Z,99701.00
2022-10-13T13:25:27.666Z,99703.94
2022-10-13T13:27:54.517Z,99692.03
2022-10-13T13:30:23.499Z,99679.75
2022-10-13T13:32:51.034Z,99671.34
2022-10-13T13:35:18.009Z,99667.38
2022-10-13T13:37:49.948Z,99664.81
2022-10-13T13:40:19.945Z,99653.88
2022-10-13T13:42:46.781Z,99650.03
2022-10-13T13:45:14.783Z,99640.25
2022-10-13T13:47:41.634Z,99655.19
2022-10-13T13:50:36.852Z,99644.00
2022-10-13T13:53:04.695Z,99651.88
2022-10-13T13:55:31.551Z,99654.25
2022-10-13T13:57:58.569Z,99643.72
2022-10-13T14:00:25.330Z,99650.19
2022-10-13T14:02:56.079Z,99657.72
2022-10-13T14:05:23.680Z,99652.16
2022-10-13T14:07:53.479Z,99645.06
2022-10-13T14:10:20.288Z,99651.88
2022-10-13T14:12:47.315Z,99645.88
2022-10-13T14:15:14.087Z,99645.47
2022-10-13T14:17:40.792Z,99647.97
2022-10-13T14:20:07.910Z,99638.34
2022-10-13T14:22:38.970Z,99637.50
2022-10-13T14:25:07.166Z,99635.75
2022-10-13T14:27:34.929Z,99635.91
2022-10-13T14:30:02.559Z,99628.25
2022-10-13T14:32:29.391Z,99628.81
2022-10-13T14:34:56.218Z,99623.50
2022-10-13T14:37:23.938Z,99623.72
2022-10-13T14:39:52.601Z,99627.34
2022-10-13T14:42:19.287Z,99630.59
2022-10-13T14:44:46.105Z,99611.03
2022-10-13T14:47:13.059Z,99614.25
2022-10-13T14:49:39.954Z,99625.56
2022-10-13T14:52:06.863Z,99609.56
2022-10-13T14:54:33.698Z,99602.78
2022-10-13T14:57:05.204Z,99597.97
2022-10-13T14:59:32.267Z,99583.75
2022-10-13T15:01:59.070Z,99585.38
2022-10-13T15:04:25.908Z,99590.22
2022-10-13T15:06:52.654Z,99583.75
2022-10-13T15:09:21.079Z,99587.78
2022-10-13T15:11:52.357Z,99587.50
2022-10-13T15:14:19.128Z,99585.78
2022-10-13T15:16:45.992Z,99594.31
2022-10-13T15:19:12.812Z,99582.53
2022-10-13T15:21:40.391Z,99578.16
2022-10-13T15:24:08.195Z,99592.94
2022-10-13T15:26:35.096Z,99589.38
2022-10-13T15:29:01.834Z,99585.34
2022-10-13T15:31:30.932Z,99579.94
2022-10-13T15:33:57.741Z,99579.13
2022-10-13T15:36:25.692Z,99587.25
2022-10-13T15:38:52.493Z,99589.06
2022-10-13T15:41:19.871Z,99592.66
2022-10-13T15:43:47.647Z,99585.25
2022-10-13T15:46:21.468Z,99589.56
2022-10-13T15:48:49.320Z,99566.63
2022-10-13T15:51:19.461Z,99563.41
2022-10-13T15:53:47.718Z,99567.31
2022-10-13T15:56:15.124Z,99563.66
2022-10-13T15:58:42.101Z,99557.59
2022-10-13T16:01:12.902Z,99559.44
2022-10-13T16:03:40.214Z,99553.53
2022-10-13T16:06:10.343Z,99551.41
2022-10-13T16:08:37.933Z,99566.47
2022-10-13T16:11:12.479Z,99564.72
2022-10-13T16:13:40.114Z,99565.03
2022-10-13T16:16:07.318Z,99559.44
2022-10-13T16:18:37.116Z,99555.66
2022-10-13T16:21:18.585Z,99542.72
2022-10-13T16:23:47.210Z,99534.03
2022-10-13T16:26:14.377Z,99527.91
2022-10-13T16:28:41.640Z,99519.31
2022-10-13T16:31:12.919Z,99522.91
2022-10-13T16:33:43.145Z,99524.28
2022-10-13T16:36:12.104Z,99527.28
2022-10-13T16:38:42.108Z,99528.28
2022-10-13T16:41:12.840Z,99519.94
2022-10-13T16:43:39.641Z,99518.31
2022-10-13T16:46:08.336Z,99516.84
2022-10-13T16:48:35.230Z,99508.34
2022-10-13T16:51:11.522Z,99505.75
2022-10-13T16:53:38.818Z,99495.97
2022-10-13T16:56:06.556Z,99481.56
2022-10-13T16:58:33.659Z,99490.75
2022-10-13T17:01:08.681Z,99496.75
2022-10-13T17:03:39.368Z,99493.59
2022-10-13T17:06:07.088Z,99494.69
2022-10-13T17:08:33.962Z,99491.78
2022-10-13T17:11:02.464Z,99484.44
2022-10-13T17:13:31.141Z,99489.00
2022-10-13T17:15:58.381Z,99474.44
2022-10-13T17:18:27.096Z,99479.22
2022-10-13T17:21:02.146Z,99471.59
2022-10-13T17:23:29.622Z,99461.81
2022-10-13T17:26:04.265Z,99472.94
2022-10-13T17:28:31.136Z,99477.28
2022-10-13T17:31:04.599Z,99472.41
2022-10-13T17:33:35.552Z,99460.28
2022-10-13T17:36:05.750Z,99465.91
2022-10-13T17:38:32.870Z,99464.13
2022-10-13T17:41:00.960Z,99455.00
2022-10-13T17:43:28.131Z,99456.25
2022-10-13T17:45:58.198Z,99457.31
2022-10-13T17:48:33.125Z,99457.56
2022-10-13T17:51:10.739Z,99463.91
2022-10-13T17:53:38.310Z,99462.94
2022-10-13T17:56:12.448Z,99457.97
2022-10-13T17:58:40.115Z,99459.75
2022-10-13T18:01:13.244Z,99461.78
2022-10-13T18:03:45.126Z,99463.16
2022-10-13T18:06:12.426Z,99468.88
2022-10-13T18:08:39.139Z,99476.84
2022-10-13T18:11:10.391Z,99473.59
2022-10-13T18:13:37.434Z,99470.50
2022-10-13T18:16:09.487Z,99467.00
2022-10-13T18:18:36.616Z,99464.47
2022-10-13T18:21:05.380Z,99461.63
2022-10-13T18:23:33.406Z,99466.50
2022-10-13T18:26:05.597Z,99457.91
2022-10-13T18:28:35.037Z,99467.38
2022-10-13T18:31:06.541Z,99461.47
2022-10-13T18:33:33.454Z,99454.22
2022-10-13T18:36:00.444Z,99452.00
2022-10-13T18:38:27.563Z,99448.19
2022-10-13T18:40:54.666Z,99448.03
2022-10-13T18:43:21.435Z,99439.56
2022-10-13T18:45:48.171Z,99437.38
2022-10-13T18:48:14.874Z,99436.00
2022-10-13T18:50:41.610Z,99435.69
2022-10-13T18:53:08.410Z,99437.00
2022-10-13T18:55:36.330Z,99434.41
2022-10-13T18:58:03.148Z,99425.34
2022-10-13T19:00:29.939Z,99430.59
2022-10-13T19:02:56.909Z,99416.16
2022-10-13T19:05:23.751Z,99421.63
2022-10-13T19:07:56.944Z,99409.66
2022-10-13T19:10:23.742Z,99403.03
2022-10-13T19:12:50.512Z,99409.81
2022-10-13T19:15:20.092Z,99400.13
2022-10-13T19:17:49.828Z,99400.59
2022-10-13T19:20:16.697Z,99402.00
2022-10-13T19:22:43.483Z,99394.50
2022-10-13T19:25:13.097Z,99404.09
2022-10-13T19:27:39.836Z,99399.47
2022-10-13T19:30:07.023Z,99395.06
2022-10-13T19:32:33.851Z,99397.09
2022-10-13T19:35:00.557Z,99411.75
2022-10-13T19:37:27.321Z,99392.88
2022-10-13T19:39:54.053Z,99392.06
2022-10-13T19:42:20.898Z,99378.41
2022-10-13T19:44:47.594Z,99382.06
2022-10-13T19:47:14.360Z,99373.34
2022-10-13T19:49:41.063Z,99369.75
2022-10-13T19:52:07.918Z,99355.00
2022-10-13T19:55:08.535Z,99355.19
2022-10-13T19:57:35.604Z,99352.66
2022-10-13T20:00:02.359Z,99352.19
2022-10-13T20:02:39.348Z,99352.50
2022-10-13T20:05:06.706Z,99341.69
2022-10-13T20:07:33.626Z,99342.31
2022-10-13T20:10:06.693Z,99340.44
2022-10-13T20:12:33.566Z,99336.69
2022-10-13T20:15:00.323Z,99328.63
2022-10-13T20:17:27.205Z,99325.03
2022-10-13T20:19:53.997Z,99313.91
2022-10-13T20:22:20.814Z,99309.91
2022-10-13T20:24:47.746Z,99313.34
2022-10-13T20:27:14.697Z,99307.22
2022-10-13T20:29:42.010Z,99305.97
2022-10-13T20:32:09.010Z,99308.16
2022-10-13T20:34:35.789Z,99292.91
2022-10-13T20:37:02.744Z,99295.34
2022-10-13T20:39:29.532Z,99299.59
2022-10-13T20:41:56.488Z,99302.28
2022-10-13T20:44:23.587Z,99290.59
2022-10-13T20:46:50.502Z,99302.22
2022-10-13T20:49:17.403Z,99304.41
2022-10-13T20:51:44.344Z,99291.59
2022-10-13T20:54:12.509Z,99289.50
2022-10-13T20:56:40.111Z,99276.09
2022-10-13T20:59:09.682Z,99274.34
2022-10-13T21:01:37.082Z,99264.25
2022-10-13T21:04:04.719Z,99254.78
2022-10-13T21:06:31.703Z,99252.00
2022-10-13T21:09:00.318Z,99249.75
2022-10-13T21:11:27.130Z,99256.50
2022-10-13T21:13:54.441Z,99261.31
2022-10-13T21:16:27.560Z,99262.75
2022-10-13T21:18:56.150Z,99260.72
2022-10-13T21:21:28.186Z,99262.88
2022-10-13T21:23:56.910Z,99256.47
2022-10-13T21:26:24.747Z,99252.22
2022-10-13T21:28:52.143Z,99236.66
2022-10-13T21:31:21.038Z,99235.28
2022-10-13T21:33:48.352Z,99232.59
2022-10-13T21:36:17.783Z,99215.44
2022-10-13T21:38:45.929Z,99211.06
2022-10-13T21:41:14.366Z,99198.97
2022-10-13T21:43:41.337Z,99195.13
2022-10-13T21:46:13.476Z,99181.09
2022-10-13T21:48:43.019Z,99186.66
2022-10-13T21:51:14.956Z,99171.53
2022-10-13T21:53:41.834Z,99166.69
2022-10-13T21:56:09.985Z,99155.91
2022-10-13T21:58:36.852Z,99149.94
2022-10-13T22:01:05.131Z,99171.41
2022-10-13T22:03:33.163Z,99163.28
2022-10-13T22:06:07.629Z,99158.19
2022-10-13T22:08:39.198Z,99164.03
